Pagina principale
METAR-TAF:

METAR-TAF

Aeroporti :

Aeroporto di Olbia-Costa Smeralda

Olbia, Italia

latitudine: 40-54N, longitudine: 009-31E, altezza: 11 m

Osservazione

Il bollettino è stato emesso 38 minuti fa, alle 20:20 UTC
Vento 9 kt da sud-ovest
Temperature 23°C
Umidità 50%
Pressione 1012 hPa
Visibilità 10 km o più
nessuna nube inferiore a 1500 m e nessun cumulonembo

METAR: LIEO 222020Z 23009KT CAVOK 23/12 Q1012

Ora: 22:58 (20:58 UTC)

Previsione

Il bollettino è stato emesso 3 ore e 58 minuti fa, alle 17:00 UTC
Previsione valida dal 22 alle 18 UTC al 23 alle 18 UTC
Vento 12 kt da ovest/sud-ovest
Visibilità 10 km o più
Nubi sparse ad un'altezza di 2500 ft
Temporaneamente
dal 23 alle 00 UTC al 23 alle 06 UTC
Nuvoloso ad un'altezza di 1400 ft
pioggia
Evoluzione graduale
dal 23 alle 03 UTC al 23 alle 06 UTC
Vento 12 kt da nord/nord-est

TAF: LIEO 221700Z 2218/2318 24012KT 9999 SCT025 TEMPO 2300/2306 RA BKN014 BECMG 2303/2306 02012KT

Osservazioni e previsioni meteorologiche di più di 4000 aeroporti (messaggi METAR e TAF).

Le stazioni disponibili sono rappresentate dai dischi gialli e rossi sulla carta.

Puntare il mouse per vedere il nome della stazione.

Clicca sopra per visualizzare le osservazioni e previsioni meteorologiche.

Per cambiare la mappa : fare clic sui pulsanti verdi con una croce nera per ingrandire, il pulsante verde con un trattino per diminuire, o sulla freccia verde per le mappe adiacenti.


METAR-TAF: